Data for 05/19/2016

Time Sea-Level Adjusted Pressure Absolute Pressure Temperature Relative Humidity Dew Point   
(mb) (inHg) (mb) (inHg) (C) (F) (%) (C) (F)
00:05 1013 29.91 843 24.89 12.3 54.2 64 5.9 42.6
00:10 1013 29.91 843 24.89 12.2 53.9 65 5.9 42.7
00:15 1013 29.91 843 24.89 12.1 53.8 65 5.8 42.5
00:20 1013 29.91 842 24.86 12.2 53.9 65 5.8 42.4
00:25 1013 29.91 842 24.86 12.2 54 65 5.8 42.5
00:30 1013 29.91 842 24.86 12.2 53.9 65 5.9 42.7
00:35 1013 29.91 842 24.86 11.9 53.5 66 5.9 42.6
00:40 1013 29.91 842 24.86 11.8 53.2 68 6.1 43
00:45 1013 29.91 842 24.86 11.5 52.7 68 5.8 42.4
00:50 1013 29.91 842 24.86 11.5 52.6 68 5.8 42.5
00:55 1013 29.91 842 24.86 11.4 52.5 68 5.7 42.3
01:00 1013 29.91 842 24.86 11.2 52.2 69 5.7 42.3
01:05 1013 29.91 842 24.86 11 51.8 70 5.7 42.3
01:10 1013 29.91 842 24.86 10.8 51.4 71 5.7 42.3
01:15 1013 29.91 842 24.86 10.8 51.4 68 5.1 41.2
01:20 1013 29.91 842 24.86 11.1 51.9 67 5.1 41.2
01:25 1013 29.91 842 24.86 11.3 52.3 65 4.9 40.9
01:30 1012 29.88 842 24.86 11.4 52.5 65 5.2 41.3
01:35 1012 29.88 842 24.86 11.3 52.3 65 5.1 41.1
01:40 1012 29.88 842 24.86 11.3 52.3 65 4.9 40.9
01:45 1012 29.88 841 24.83 11.3 52.4 63 4.7 40.4
01:50 1012 29.88 841 24.83 11.4 52.4 65 5 41
01:55 1012 29.88 841 24.83 11.1 52 65 4.9 40.8
02:00 1012 29.88 841 24.83 11.1 52 65 4.7 40.5
02:05 1012 29.88 841 24.83 11.1 52 65 4.9 40.8
02:10 1012 29.88 841 24.83 11.1 51.9 65 4.8 40.6
02:15 1012 29.88 841 24.83 11 51.8 65 4.8 40.6
02:20 1012 29.88 841 24.83 10.9 51.6 66 4.8 40.6
02:25 1012 29.88 841 24.83 10.8 51.4 66 4.7 40.5
02:30 1012 29.88 841 24.83 10.6 51.1 67 4.8 40.7
02:35 1012 29.88 841 24.83 10.5 50.9 67 4.7 40.5
02:40 1012 29.88 841 24.83 10.6 51.1 66 4.6 40.2
02:45 1011 29.85 841 24.83 10.8 51.4 64 4.3 39.7
02:50 1011 29.85 841 24.83 11 51.8 63 4.3 39.7
02:55 1011 29.85 841 24.83 11.2 52.2 61 4.1 39.3
03:00 1011 29.85 840 24.81 11.5 52.6 60 4.1 39.4
03:05 1011 29.85 840 24.81 11.4 52.6 62 4.4 39.9
03:10 1011 29.85 840 24.81 11.2 52.1 64 4.6 40.3
03:15 1011 29.85 840 24.81 11 51.7 63 4.3 39.8
03:20 1011 29.85 840 24.81 11 51.7 64 4.5 40.1
03:25 1011 29.85 840 24.81 10.7 51.3 66 4.6 40.3
03:30 1011 29.85 840 24.81 10.5 50.8 67 4.6 40.2
03:35 1011 29.85 840 24.81 10.4 50.6 67 4.4 40
03:40 1011 29.85 840 24.81 10.4 50.6 66 4.3 39.8
03:45 1011 29.85 840 24.81 10.4 50.8 65 4.2 39.6
03:50 1011 29.85 840 24.81 10.7 51.3 64 4.2 39.6
03:55 1011 29.85 840 24.81 10.8 51.4 63 4.1 39.4
04:00 1011 29.85 840 24.81 10.9 51.5 63 4.1 39.3
04:05 1011 29.85 840 24.81 11 51.8 62 4.1 39.3
04:10 1011 29.85 840 24.81 11.1 52 62 4.1 39.3
04:15 1011 29.85 840 24.81 11 51.9 63 4.3 39.7
04:20 1011 29.85 840 24.81 10.9 51.5 64 4.3 39.7
04:25 1011 29.85 840 24.81 11 51.7 63 4.2 39.5
04:30 1010 29.83 840 24.81 11 51.8 63 4.2 39.5
04:35 1010 29.83 840 24.81 11 51.7 63 4.2 39.6
04:40 1010 29.83 840 24.81 10.9 51.7 64 4.3 39.8
04:45 1010 29.83 839 24.78 10.9 51.7 63 4.3 39.8
04:50 1010 29.83 839 24.78 11 51.9 62 4.1 39.4
04:55 1010 29.83 839 24.78 11.3 52.3 61 4 39.3
05:00 1010 29.83 839 24.78 11.3 52.3 61 4 39.2
05:05 1010 29.83 839 24.78 11.3 52.3 61 4.1 39.3
05:10 1010 29.83 839 24.78 11.2 52.1 61 4.1 39.3
05:15 1010 29.83 839 24.78 11.3 52.3 60 3.9 39
05:20 1010 29.83 839 24.78 11.3 52.4 60 4 39.2
05:25 1010 29.83 839 24.78 11.3 52.4 60 3.9 39
05:30 1010 29.83 839 24.78 11.4 52.5 60 3.9 39
05:35 1010 29.83 839 24.78 11.3 52.4 61 4.1 39.4
05:40 1010 29.83 839 24.78 11.3 52.3 59 3.6 38.5
05:45 1010 29.83 839 24.78 11.6 52.8 59 3.8 38.8
05:50 1010 29.83 839 24.78 11.6 52.9 59 3.9 39.1
05:55 1010 29.83 839 24.78 11.6 52.8 59 4 39.1
06:00 1009 29.8 839 24.78 11.5 52.7 60 4 39.2
06:05 1009 29.8 839 24.78 11.6 52.8 59 4 39.1
06:10 1009 29.8 839 24.78 11.6 52.8 60 4 39.3
06:15 1009 29.8 839 24.78 11.6 52.9 59 3.9 39.1
06:20 1009 29.8 838 24.75 11.7 53.1 58 3.8 38.9
06:25 1009 29.8 838 24.75 12 53.6 56 3.6 38.5
06:30 1009 29.8 838 24.75 12.5 54.5 55 3.6 38.6
06:35 1009 29.8 838 24.75 13 55.3 53 3.6 38.4
06:40 1009 29.8 838 24.75 13.3 55.9 53 3.9 39
06:45 1009 29.8 838 24.75 13.7 56.7 51 3.7 38.7
06:50 1009 29.8 838 24.75 14.2 57.5 50 4 39.2
06:55 1009 29.8 838 24.75 14.3 57.8 51 4.3 39.7
07:00 1009 29.8 838 24.75 14.1 57.4 52 4.4 39.9
07:05 1009 29.8 838 24.75 13.9 56.9 52 4.4 39.9
07:10 1009 29.8 838 24.75 14.1 57.3 51 4.1 39.4
07:15 1009 29.8 838 24.75 14.9 58.8 48 4.1 39.4
07:20 1009 29.8 838 24.75 15.5 59.9 47 4.3 39.7
07:25 1009 29.8 838 24.75 15.5 59.9 46 3.9 39.1
07:30 1009 29.8 838 24.75 15.7 60.2 46 4.1 39.4
07:35 1009 29.8 838 24.75 16.1 60.9 46 4.5 40.1
07:40 1009 29.8 838 24.75 16.1 61 44 3.8 38.9
07:45 1009 29.8 838 24.75 16.7 62 40 3.2 37.7
07:50 1009 29.8 838 24.75 17.1 62.7 38 2.9 37.2
07:55 1009 29.8 838 24.75 17.2 62.9 39 3.3 38
08:00 1009 29.8 838 24.75 17.1 62.8 38 3 37.3
08:05 1009 29.8 838 24.75 17.1 62.7 39 3 37.4
08:10 1009 29.8 838 24.75 17.1 62.7 38 2.8 37
08:15 1009 29.8 838 24.75 17.1 62.8 40 3.3 38
08:20 1009 29.8 838 24.75 17.4 63.3 40 3.7 38.6
08:25 1009 29.8 838 24.75 17.7 63.8 38 3.2 37.8
08:30 1009 29.8 838 24.75 17.9 64.2 38 3.7 38.6
08:35 1009 29.8 838 24.75 18.3 65 36 3.2 37.7
08:40 1009 29.8 838 24.75 18.9 66 37 4 39.2
08:45 1009 29.8 838 24.75 18.8 65.9 34 2.6 36.7
08:50 1008 29.77 838 24.75 18.7 65.6 34 2.5 36.4
08:55 1008 29.77 838 24.75 18.9 66.1 32 2.1 35.7
09:00 1008 29.77 838 24.75 18.8 65.8 32 2.1 35.7
09:05 1008 29.77 838 24.75 18.9 66.1 33 2.4 36.3
09:10 1008 29.77 837 24.72 19.6 67.2 30 1.6 34.9
09:15 1008 29.77 837 24.72 20.3 68.6 29 2.1 35.7
09:20 1008 29.77 837 24.72 20.4 68.6 28 1.5 34.7
09:25 1008 29.77 837 24.72 20 68.1 30 1.9 35.5
09:30 1008 29.77 837 24.72 19 66.1 31 1.5 34.7
09:35 1008 29.77 837 24.72 18.8 65.8 31 1.4 34.5
09:40 1008 29.77 837 24.72 18.7 65.6 32 1.8 35.2
09:45 1008 29.77 837 24.72 18.4 65.1 32 1.7 35
09:50 1008 29.77 837 24.72 18.2 64.8 32 1.5 34.6
09:55 1008 29.77 837 24.72 18.4 65.1 31 1.3 34.3
10:00 1008 29.77 837 24.72 18.5 65.3 32 1.8 35.3
10:05 1008 29.77 837 24.72 18.6 65.4 34 2.5 36.5
10:10 1008 29.77 837 24.72 18.7 65.7 33 2.3 36.1
10:15 1008 29.77 837 24.72 18.8 65.9 32 2 35.6
10:20 1008 29.77 837 24.72 18.6 65.5 33 2.1 35.9
10:25 1008 29.77 837 24.72 18.6 65.4 32 1.7 35
10:30 1008 29.77 837 24.72 18.5 65.3 32 1.5 34.8
10:35 1008 29.77 837 24.72 18.5 65.4 31 1.4 34.6
10:40 1008 29.77 837 24.72 18.5 65.3 33 2.1 35.8
10:45 1008 29.77 837 24.72 18.5 65.3 33 2 35.5
10:50 1007 29.74 837 24.72 18.6 65.4 33 2.2 36
10:55 1007 29.74 837 24.72 18.5 65.4 33 2.2 36
11:00 1007 29.74 837 24.72 18.5 65.3 33 2.2 36
11:05 1007 29.74 837 24.72 18.7 65.6 33 2.3 36.1
11:10 1007 29.74 837 24.72 18.7 65.7 33 2.3 36.1
11:15 1007 29.74 836 24.69 19 66.2 34 2.7 36.9
11:20 1007 29.74 836 24.69 19.1 66.4 34 3.2 37.8
11:25 1007 29.74 836 24.69 19.2 66.5 33 2.8 37
11:30 1007 29.74 836 24.69 19.3 66.8 32 2.4 36.4
11:35 1007 29.74 836 24.69 19.4 66.9 33 3 37.4
11:40 1007 29.74 836 24.69 19.2 66.5 32 2.3 36.2
11:45 1007 29.74 836 24.69 19 66.1 36 3.5 38.3
11:50 1007 29.74 836 24.69 19 66.2 35 3.3 37.9
11:55 1007 29.74 836 24.69 19.1 66.4 31 1.7 35
12:00 1007 29.74 836 24.69 19.3 66.7 30 1.5 34.7
12:05 1007 29.74 836 24.69 18.6 65.5 43 5.8 42.5
12:10 1007 29.74 837 24.72 17.8 64.1 38 3.5 38.3
12:15 1007 29.74 837 24.72 18.4 65.2 43 5.8 42.4
12:20 1007 29.74 837 24.72 18.3 64.9 44 5.8 42.4
12:25 1007 29.74 837 24.72 17.8 64 47 6.5 43.7
12:30 1008 29.77 837 24.72 16.1 61 60 8.5 47.2
12:35 1008 29.77 837 24.72 13.6 56.5 68 7.9 46.2
12:40 1008 29.77 838 24.75 12.8 55.1 69 7.3 45.2
12:45 1009 29.8 838 24.75 12.6 54.7 69 7.2 45
12:50 1009 29.8 838 24.75 13.2 55.8 67 7.2 45
12:55 1009 29.8 838 24.75 13.2 55.8 70 7.9 46.2
13:00 1009 29.8 838 24.75 12.5 54.4 70 7.2 45
13:05 1009 29.8 838 24.75 11.6 52.9 68 5.9 42.6
13:10 1009 29.8 838 24.75 11.1 52 69 5.7 42.3
13:15 1009 29.8 839 24.78 11.4 52.6 67 5.6 42.1
13:20 1010 29.83 839 24.78 11 51.8 70 5.7 42.3
13:25 1010 29.83 839 24.78 10.7 51.2 71 5.7 42.3
13:30 1010 29.83 839 24.78 10.4 50.8 71 5.5 41.9
13:35 1010 29.83 839 24.78 10.2 50.4 74 5.8 42.5
13:40 1010 29.83 839 24.78 10.2 50.3 78 6.6 43.9
13:45 1010 29.83 839 24.78 10.3 50.6 78 6.7 44
13:50 1010 29.83 839 24.78 10.3 50.5 78 6.6 43.9
13:55 1010 29.83 839 24.78 10 50 80 6.7 44.1
14:00 1010 29.83 839 24.78 9.8 49.7 79 6.3 43.4
14:05 1010 29.83 839 24.78 9.4 48.8 81 6.2 43.2
14:10 1010 29.83 840 24.81 9.3 48.7 81 6.1 43.1
14:15 1010 29.83 840 24.81 9.2 48.5 82 6.4 43.5
14:20 1010 29.83 839 24.78 9.1 48.4 84 6.5 43.7
14:25 1010 29.83 840 24.81 9.2 48.5 85 6.8 44.2
14:30 1010 29.83 840 24.81 9.3 48.7 85 6.9 44.3
14:35 1010 29.83 840 24.81 9.4 48.9 82 6.5 43.7
14:40 1010 29.83 840 24.81 9.5 49 82 6.5 43.6
14:45 1010 29.83 840 24.81 9.5 49 83 6.7 44.1
14:50 1011 29.85 840 24.81 9.9 49.8 81 6.7 44.1
14:55 1010 29.83 840 24.81 10 49.9 80 6.6 43.9
15:00 1010 29.83 840 24.81 9.9 49.9 80 6.6 43.9
15:05 1010 29.83 840 24.81 10.1 50.3 80 6.8 44.2
15:10 1010 29.83 839 24.78 10.5 51 74 6.2 43.2
15:15 1010 29.83 839 24.78 10.4 50.7 78 6.7 44.1
15:20 1010 29.83 839 24.78 10.5 50.8 75 6.3 43.3
15:25 1010 29.83 839 24.78 10.8 51.5 74 6.3 43.4
15:30 1010 29.83 839 24.78 11.8 53.2 68 6.2 43.2
15:35 1010 29.83 839 24.78 12 53.7 68 6.4 43.4
15:40 1010 29.83 839 24.78 11 51.8 73 6.5 43.7
15:45 1010 29.83 839 24.78 10.7 51.2 74 6.2 43.2
15:50 1010 29.83 839 24.78 10.8 51.4 73 6.1 43
15:55 1010 29.83 839 24.78 10.8 51.4 74 6.3 43.3
16:00 1010 29.83 839 24.78 10.9 51.5 74 6.5 43.7
16:05 1010 29.83 839 24.78 11.1 52 71 6.1 43
16:10 1010 29.83 839 24.78 11.1 52 73 6.5 43.7
16:15 1010 29.83 839 24.78 11.3 52.3 74 6.8 44.2
16:20 1009 29.8 839 24.78 11.5 52.8 74 7.1 44.7
16:25 1009 29.8 839 24.78 11.9 53.4 73 7.2 45
16:30 1009 29.8 839 24.78 12 53.6 72 7.2 44.9
16:35 1009 29.8 839 24.78 11.9 53.4 72 7.1 44.7
16:40 1009 29.8 839 24.78 11.7 53 73 7 44.6
16:45 1009 29.8 839 24.78 11.5 52.6 73 6.9 44.4
16:50 1009 29.8 839 24.78 11.3 52.4 76 7.3 45.2
16:55 1009 29.8 839 24.78 11.2 52.2 76 7.1 44.7
17:00 1009 29.8 839 24.78 11.1 51.9 76 6.9 44.5
17:05 1010 29.83 839 24.78 10.7 51.3 78 7 44.5
17:10 1010 29.83 839 24.78 10.4 50.7 78 6.8 44.2
17:15 1010 29.83 839 24.78 10 50.1 79 6.5 43.8
17:20 1010 29.83 839 24.78 9.6 49.3 80 6.3 43.3
17:25 1010 29.83 840 24.81 9.2 48.5 84 6.5 43.8
17:30 1011 29.85 840 24.81 8.6 47.5 87 6.6 43.9
17:35 1011 29.85 840 24.81 8.4 47.2 88 6.5 43.7
17:40 1011 29.85 840 24.81 8.2 46.8 88 6.3 43.4
17:45 1011 29.85 840 24.81 8.1 46.5 87 6.1 43
17:50 1011 29.85 840 24.81 8 46.4 88 6.1 43.1
17:55 1011 29.85 840 24.81 8.1 46.5 87 6.1 42.9
18:00 1011 29.85 840 24.81 8 46.5 86 5.9 42.6
18:05 1011 29.85 840 24.81 8.1 46.6 87 6.1 42.9
18:10 1011 29.85 840 24.81 8.1 46.7 86 6 42.8
18:15 1011 29.85 840 24.81 8.2 46.7 84 5.6 42
18:20 1011 29.85 840 24.81 8.2 46.7 85 5.8 42.5
18:25 1011 29.85 840 24.81 8.2 46.7 84 5.7 42.2
18:30 1011 29.85 840 24.81 8.1 46.5 85 5.6 42.1
18:35 1011 29.85 840 24.81 8.1 46.5 84 5.6 42.1
18:40 1011 29.85 840 24.81 8.1 46.6 86 5.9 42.6
18:45 1011 29.85 840 24.81 8 46.4 86 5.8 42.5
18:50 1011 29.85 840 24.81 7.9 46.3 86 5.8 42.5
18:55 1011 29.85 840 24.81 7.9 46.1 88 6 42.9
19:00 1011 29.85 840 24.81 7.9 46.2 88 6.1 42.9
19:05 1011 29.85 840 24.81 7.8 46 86 5.5 42
19:10 1011 29.85 840 24.81 7.6 45.7 86 5.5 41.8
19:15 1011 29.85 840 24.81 7.5 45.5 87 5.4 41.7
19:20 1011 29.85 840 24.81 7.5 45.5 87 5.6 42
19:25 1011 29.85 840 24.81 7.5 45.5 87 5.6 42
19:30 1011 29.85 840 24.81 7.5 45.5 89 5.8 42.4
19:35 1011 29.85 840 24.81 7.5 45.5 88 5.7 42.3
19:40 1011 29.85 840 24.81 7.3 45.2 89 5.6 42.1
19:45 1011 29.85 840 24.81 7.2 45 89 5.5 41.9
19:50 1010 29.83 839 24.78 7.2 45 89 5.5 42
19:55 1010 29.83 839 24.78 7.2 44.9 90 5.6 42.2
20:00 1010 29.83 839 24.78 7.1 44.8 90 5.5 42
20:05 1010 29.83 839 24.78 7.1 44.7 89 5.4 41.8
20:10 1010 29.83 839 24.78 7 44.6 88 5.2 41.4
20:15 1010 29.83 839 24.78 7 44.5 87 5 41
20:20 1010 29.83 839 24.78 6.9 44.4 87 4.8 40.6
20:25 1010 29.83 839 24.78 6.8 44.2 87 4.8 40.6
20:30 1010 29.83 839 24.78 6.8 44.2 87 4.8 40.6
20:35 1010 29.83 839 24.78 6.7 44.1 86 4.6 40.2
20:40 1010 29.83 839 24.78 6.7 44.1 86 4.5 40
20:45 1010 29.83 839 24.78 6.7 44.1 85 4.4 40
20:50 1010 29.83 839 24.78 6.7 44.1 84 4.2 39.6
20:55 1010 29.83 839 24.78 6.8 44.2 84 4.2 39.6
21:00 1010 29.83 839 24.78 6.7 44.1 84 4.2 39.6
21:05 1010 29.83 839 24.78 6.6 43.9 84 4.2 39.5
21:10 1010 29.83 840 24.81 6.6 43.8 85 4.2 39.6
21:15 1010 29.83 840 24.81 6.5 43.7 85 4.2 39.6
21:20 1010 29.83 840 24.81 6.5 43.7 84 4.1 39.3
21:25 1010 29.83 840 24.81 6.5 43.7 85 4.2 39.5
21:30 1011 29.85 840 24.81 6.5 43.6 84 4 39.3
21:35 1011 29.85 840 24.81 6.7 44.1 81 3.7 38.6
21:40 1011 29.85 840 24.81 6.9 44.5 81 3.9 39
21:45 1011 29.85 840 24.81 6.8 44.2 84 4.3 39.7
21:50 1011 29.85 840 24.81 6.5 43.7 86 4.3 39.8
21:55 1011 29.85 840 24.81 6.3 43.3 88 4.4 39.9
22:00 1011 29.85 840 24.81 6.2 43.1 89 4.4 40
22:05 1011 29.85 840 24.81 6.2 43.1 89 4.4 40
22:10 1011 29.85 840 24.81 6.2 43.1 89 4.4 40
22:15 1011 29.85 840 24.81 6.1 43.1 89 4.4 40
22:20 1010 29.83 840 24.81 6.1 43 89 4.4 39.9
22:25 1010 29.83 840 24.81 6 42.8 89 4.4 39.9
22:30 1010 29.83 840 24.81 5.9 42.6 90 4.4 39.9
22:35 1010 29.83 840 24.81 5.8 42.4 91 4.4 39.8
22:40 1011 29.85 840 24.81 5.7 42.3 91 4.4 39.9
22:45 1011 29.85 840 24.81 5.9 42.6 90 4.3 39.8
22:50 1011 29.85 840 24.81 5.9 42.6 89 4.2 39.5
22:55 1011 29.85 840 24.81 5.8 42.4 89 4.2 39.5
23:00 1011 29.85 840 24.81 5.7 42.2 89 3.9 39.1
23:05 1011 29.85 840 24.81 5.6 42.1 88 3.8 38.9
23:10 1011 29.85 840 24.81 5.6 42.1 88 3.7 38.7
23:15 1011 29.85 840 24.81 5.4 41.8 89 3.7 38.7
23:20 1011 29.85 840 24.81 5.2 41.4 90 3.7 38.7
23:25 1011 29.85 840 24.81 5 41.1 91 3.7 38.6
23:30 1011 29.85 840 24.81 4.9 40.8 90 3.5 38.3
23:35 1011 29.85 840 24.81 4.9 40.7 90 3.4 38.1
23:40 1011 29.85 840 24.81 5 40.9 90 3.4 38.1
23:45 1011 29.85 840 24.81 5 41.1 89 3.4 38.1
23:50 1011 29.85 840 24.81 5.1 41.2 89 3.4 38.1
23:55 1011 29.85 840 24.81 5.2 41.3 89 3.5 38.2
24:00 1011 29.85 840 24.81 5.1 41.2 88 3.4 38